sensor_id;sensor_type;location;lat;lon;timestamp;temperature;humidity
32139;DHT22;18644;48.700;9.210;2023-06-26T00:00:46;19.90;46.50
32139;DHT22;18644;48.700;9.210;2023-06-26T00:03:13;19.90;46.70
32139;DHT22;18644;48.700;9.210;2023-06-26T00:05:41;19.90;47.40
32139;DHT22;18644;48.700;9.210;2023-06-26T00:08:08;19.90;47.00
32139;DHT22;18644;48.700;9.210;2023-06-26T00:10:35;19.80;47.00
32139;DHT22;18644;48.700;9.210;2023-06-26T00:13:03;19.80;47.20
32139;DHT22;18644;48.700;9.210;2023-06-26T00:15:30;19.70;47.30
32139;DHT22;18644;48.700;9.210;2023-06-26T00:17:57;19.70;47.30
32139;DHT22;18644;48.700;9.210;2023-06-26T00:20:24;19.60;47.40
32139;DHT22;18644;48.700;9.210;2023-06-26T00:22:51;19.60;47.50
32139;DHT22;18644;48.700;9.210;2023-06-26T00:25:19;19.60;47.60
32139;DHT22;18644;48.700;9.210;2023-06-26T00:27:46;19.50;47.70
32139;DHT22;18644;48.700;9.210;2023-06-26T00:30:14;19.50;47.80
32139;DHT22;18644;48.700;9.210;2023-06-26T00:32:41;19.50;47.90
32139;DHT22;18644;48.700;9.210;2023-06-26T00:35:08;19.40;47.90
32139;DHT22;18644;48.700;9.210;2023-06-26T00:37:35;19.40;47.90
32139;DHT22;18644;48.700;9.210;2023-06-26T00:40:02;19.30;47.90
32139;DHT22;18644;48.700;9.210;2023-06-26T00:42:30;19.30;48.10
32139;DHT22;18644;48.700;9.210;2023-06-26T00:44:57;19.20;48.20
32139;DHT22;18644;48.700;9.210;2023-06-26T00:47:26;19.20;48.40
32139;DHT22;18644;48.700;9.210;2023-06-26T00:49:54;19.20;48.60
32139;DHT22;18644;48.700;9.210;2023-06-26T00:52:22;19.10;48.70
32139;DHT22;18644;48.700;9.210;2023-06-26T00:54:50;19.10;48.80
32139;DHT22;18644;48.700;9.210;2023-06-26T00:57:18;19.00;48.90
32139;DHT22;18644;48.700;9.210;2023-06-26T00:59:45;19.00;49.00
32139;DHT22;18644;48.700;9.210;2023-06-26T01:02:12;18.90;49.10
32139;DHT22;18644;48.700;9.210;2023-06-26T01:04:46;18.90;49.10
32139;DHT22;18644;48.700;9.210;2023-06-26T01:07:15;18.90;49.20
32139;DHT22;18644;48.700;9.210;2023-06-26T01:09:44;18.80;49.30
32139;DHT22;18644;48.700;9.210;2023-06-26T01:12:12;18.80;49.40
32139;DHT22;18644;48.700;9.210;2023-06-26T01:14:39;18.80;49.60
32139;DHT22;18644;48.700;9.210;2023-06-26T01:17:07;18.70;49.60
32139;DHT22;18644;48.700;9.210;2023-06-26T01:19:37;18.70;49.70
32139;DHT22;18644;48.700;9.210;2023-06-26T01:22:10;18.70;49.70
32139;DHT22;18644;48.700;9.210;2023-06-26T01:24:47;18.70;49.90
32139;DHT22;18644;48.700;9.210;2023-06-26T01:27:24;18.60;50.00
32139;DHT22;18644;48.700;9.210;2023-06-26T01:29:53;18.60;50.20
32139;DHT22;18644;48.700;9.210;2023-06-26T01:32:22;18.60;49.50
32139;DHT22;18644;48.700;9.210;2023-06-26T01:34:49;18.50;49.70
32139;DHT22;18644;48.700;9.210;2023-06-26T01:37:16;18.50;49.90
32139;DHT22;18644;48.700;9.210;2023-06-26T01:39:43;18.50;50.10
32139;DHT22;18644;48.700;9.210;2023-06-26T01:42:11;18.40;50.10
32139;DHT22;18644;48.700;9.210;2023-06-26T01:44:44;18.40;50.20
32139;DHT22;18644;48.700;9.210;2023-06-26T01:47:16;18.40;50.50
32139;DHT22;18644;48.700;9.210;2023-06-26T01:49:47;18.30;50.50
32139;DHT22;18644;48.700;9.210;2023-06-26T01:52:20;18.30;50.60
32139;DHT22;18644;48.700;9.210;2023-06-26T01:54:55;18.30;50.60
32139;DHT22;18644;48.700;9.210;2023-06-26T01:57:26;18.20;50.60
32139;DHT22;18644;48.700;9.210;2023-06-26T01:59:56;18.20;50.60
32139;DHT22;18644;48.700;9.210;2023-06-26T02:02:24;18.10;50.60
32139;DHT22;18644;48.700;9.210;2023-06-26T02:04:51;18.10;50.70
32139;DHT22;18644;48.700;9.210;2023-06-26T02:07:19;18.10;50.90
32139;DHT22;18644;48.700;9.210;2023-06-26T02:09:45;18.00;51.10
32139;DHT22;18644;48.700;9.210;2023-06-26T02:12:13;18.00;51.20
32139;DHT22;18644;48.700;9.210;2023-06-26T02:14:40;18.00;51.20
32139;DHT22;18644;48.700;9.210;2023-06-26T02:17:08;18.00;51.30
32139;DHT22;18644;48.700;9.210;2023-06-26T02:19:35;17.90;51.40
32139;DHT22;18644;48.700;9.210;2023-06-26T02:22:02;17.90;51.50
32139;DHT22;18644;48.700;9.210;2023-06-26T02:24:29;17.90;51.60
32139;DHT22;18644;48.700;9.210;2023-06-26T02:26:56;17.90;51.60
32139;DHT22;18644;48.700;9.210;2023-06-26T02:29:23;17.80;51.70
32139;DHT22;18644;48.700;9.210;2023-06-26T02:31:50;17.80;52.50
32139;DHT22;18644;48.700;9.210;2023-06-26T02:34:19;17.70;51.90
32139;DHT22;18644;48.700;9.210;2023-06-26T02:36:46;17.70;52.00
32139;DHT22;18644;48.700;9.210;2023-06-26T02:39:13;17.70;52.00
32139;DHT22;18644;48.700;9.210;2023-06-26T02:41:40;17.70;52.10
32139;DHT22;18644;48.700;9.210;2023-06-26T02:44:06;17.60;52.10
32139;DHT22;18644;48.700;9.210;2023-06-26T02:46:33;17.60;52.10
32139;DHT22;18644;48.700;9.210;2023-06-26T02:49:00;17.60;52.20
32139;DHT22;18644;48.700;9.210;2023-06-26T02:51:28;17.50;52.30
32139;DHT22;18644;48.700;9.210;2023-06-26T02:53:55;17.50;52.40
32139;DHT22;18644;48.700;9.210;2023-06-26T02:56:22;17.50;52.50
32139;DHT22;18644;48.700;9.210;2023-06-26T02:58:49;17.50;52.50
32139;DHT22;18644;48.700;9.210;2023-06-26T03:01:16;17.40;52.50
32139;DHT22;18644;48.700;9.210;2023-06-26T03:03:45;17.40;52.50
32139;DHT22;18644;48.700;9.210;2023-06-26T03:06:12;17.30;52.50
32139;DHT22;18644;48.700;9.210;2023-06-26T03:08:40;17.30;52.60
32139;DHT22;18644;48.700;9.210;2023-06-26T03:11:08;17.30;53.30
32139;DHT22;18644;48.700;9.210;2023-06-26T03:13:36;17.20;52.60
32139;DHT22;18644;48.700;9.210;2023-06-26T03:16:04;17.20;52.80
32139;DHT22;18644;48.700;9.210;2023-06-26T03:18:31;17.20;52.90
32139;DHT22;18644;48.700;9.210;2023-06-26T03:20:58;17.20;53.00
32139;DHT22;18644;48.700;9.210;2023-06-26T03:23:29;17.20;53.10
32139;DHT22;18644;48.700;9.210;2023-06-26T03:25:57;17.20;53.40
32139;DHT22;18644;48.700;9.210;2023-06-26T03:28:24;17.10;53.30
32139;DHT22;18644;48.700;9.210;2023-06-26T03:30:51;17.10;53.50
32139;DHT22;18644;48.700;9.210;2023-06-26T03:33:17;17.10;53.40
32139;DHT22;18644;48.700;9.210;2023-06-26T03:35:44;17.10;53.40
32139;DHT22;18644;48.700;9.210;2023-06-26T03:38:11;17.10;53.50
32139;DHT22;18644;48.700;9.210;2023-06-26T03:40:38;17.10;53.70
32139;DHT22;18644;48.700;9.210;2023-06-26T03:43:07;17.10;53.80
32139;DHT22;18644;48.700;9.210;2023-06-26T03:45:35;17.10;53.90
32139;DHT22;18644;48.700;9.210;2023-06-26T03:48:01;17.10;53.90
32139;DHT22;18644;48.700;9.210;2023-06-26T03:50:28;17.10;54.00
32139;DHT22;18644;48.700;9.210;2023-06-26T03:52:55;17.10;54.10
32139;DHT22;18644;48.700;9.210;2023-06-26T03:55:23;17.10;54.20
32139;DHT22;18644;48.700;9.210;2023-06-26T03:57:50;17.10;54.30
32139;DHT22;18644;48.700;9.210;2023-06-26T04:00:19;17.10;54.40
32139;DHT22;18644;48.700;9.210;2023-06-26T04:02:46;17.20;54.60
32139;DHT22;18644;48.700;9.210;2023-06-26T04:05:12;17.20;54.60
32139;DHT22;18644;48.700;9.210;2023-06-26T04:07:40;17.20;54.70
32139;DHT22;18644;48.700;9.210;2023-06-26T04:10:08;17.30;54.70
32139;DHT22;18644;48.700;9.210;2023-06-26T04:12:35;17.30;54.80
32139;DHT22;18644;48.700;9.210;2023-06-26T04:15:03;17.30;54.80
32139;DHT22;18644;48.700;9.210;2023-06-26T04:17:32;17.40;55.00
32139;DHT22;18644;48.700;9.210;2023-06-26T04:19:59;17.40;55.30
32139;DHT22;18644;48.700;9.210;2023-06-26T04:22:26;17.40;55.40
32139;DHT22;18644;48.700;9.210;2023-06-26T04:24:53;17.50;55.70
32139;DHT22;18644;48.700;9.210;2023-06-26T04:27:20;17.60;55.80
32139;DHT22;18644;48.700;9.210;2023-06-26T04:29:47;17.60;55.90
32139;DHT22;18644;48.700;9.210;2023-06-26T04:32:14;17.70;56.00
32139;DHT22;18644;48.700;9.210;2023-06-26T04:34:42;17.80;56.20
32139;DHT22;18644;48.700;9.210;2023-06-26T04:37:09;17.90;56.20
32139;DHT22;18644;48.700;9.210;2023-06-26T04:39:37;18.00;56.20
32139;DHT22;18644;48.700;9.210;2023-06-26T04:42:05;18.10;56.20
32139;DHT22;18644;48.700;9.210;2023-06-26T04:44:32;18.20;56.30
32139;DHT22;18644;48.700;9.210;2023-06-26T04:46:59;18.40;56.30
32139;DHT22;18644;48.700;9.210;2023-06-26T04:49:26;18.50;56.30
32139;DHT22;18644;48.700;9.210;2023-06-26T04:51:56;18.60;56.20
32139;DHT22;18644;48.700;9.210;2023-06-26T04:54:27;18.70;56.30
32139;DHT22;18644;48.700;9.210;2023-06-26T04:56:54;18.90;56.20
32139;DHT22;18644;48.700;9.210;2023-06-26T04:59:22;19.00;56.20
32139;DHT22;18644;48.700;9.210;2023-06-26T05:01:49;19.10;56.10
32139;DHT22;18644;48.700;9.210;2023-06-26T05:04:17;19.20;56.00
32139;DHT22;18644;48.700;9.210;2023-06-26T05:06:44;19.30;56.00
32139;DHT22;18644;48.700;9.210;2023-06-26T05:09:12;19.40;55.90
32139;DHT22;18644;48.700;9.210;2023-06-26T05:11:39;19.50;55.80
32139;DHT22;18644;48.700;9.210;2023-06-26T05:14:06;19.70;55.70
32139;DHT22;18644;48.700;9.210;2023-06-26T05:16:34;19.80;55.80
32139;DHT22;18644;48.700;9.210;2023-06-26T05:19:01;19.90;55.80
32139;DHT22;18644;48.700;9.210;2023-06-26T05:21:29;20.00;55.60
32139;DHT22;18644;48.700;9.210;2023-06-26T05:23:57;20.10;55.50
32139;DHT22;18644;48.700;9.210;2023-06-26T05:26:26;20.20;55.40
32139;DHT22;18644;48.700;9.210;2023-06-26T05:28:54;20.30;55.30
32139;DHT22;18644;48.700;9.210;2023-06-26T05:31:22;20.40;55.40
32139;DHT22;18644;48.700;9.210;2023-06-26T05:33:49;20.60;55.40
32139;DHT22;18644;48.700;9.210;2023-06-26T05:36:18;20.70;55.40
32139;DHT22;18644;48.700;9.210;2023-06-26T05:38:45;20.80;55.80
32139;DHT22;18644;48.700;9.210;2023-06-26T05:41:14;20.90;55.20
32139;DHT22;18644;48.700;9.210;2023-06-26T05:43:43;21.00;54.90
32139;DHT22;18644;48.700;9.210;2023-06-26T05:46:10;21.20;54.90
32139;DHT22;18644;48.700;9.210;2023-06-26T05:48:37;21.30;54.90
32139;DHT22;18644;48.700;9.210;2023-06-26T05:51:05;21.50;54.90
32139;DHT22;18644;48.700;9.210;2023-06-26T05:53:33;21.60;54.70
32139;DHT22;18644;48.700;9.210;2023-06-26T05:56:01;21.70;54.60
32139;DHT22;18644;48.700;9.210;2023-06-26T05:58:28;21.90;54.50
32139;DHT22;18644;48.700;9.210;2023-06-26T06:00:58;22.00;54.50
32139;DHT22;18644;48.700;9.210;2023-06-26T06:03:25;22.20;54.40
32139;DHT22;18644;48.700;9.210;2023-06-26T06:05:52;22.30;54.20
32139;DHT22;18644;48.700;9.210;2023-06-26T06:08:18;22.40;53.90
32139;DHT22;18644;48.700;9.210;2023-06-26T06:10:45;22.60;53.80
32139;DHT22;18644;48.700;9.210;2023-06-26T06:13:12;22.70;53.60
32139;DHT22;18644;48.700;9.210;2023-06-26T06:15:39;22.80;53.40
32139;DHT22;18644;48.700;9.210;2023-06-26T06:18:07;23.00;53.30
32139;DHT22;18644;48.700;9.210;2023-06-26T06:20:35;23.10;53.00
32139;DHT22;18644;48.700;9.210;2023-06-26T06:23:02;23.20;53.00
32139;DHT22;18644;48.700;9.210;2023-06-26T06:25:28;23.40;52.70
32139;DHT22;18644;48.700;9.210;2023-06-26T06:27:55;23.50;52.60
32139;DHT22;18644;48.700;9.210;2023-06-26T06:30:22;23.70;52.50
32139;DHT22;18644;48.700;9.210;2023-06-26T06:32:49;23.90;52.50
32139;DHT22;18644;48.700;9.210;2023-06-26T06:35:19;24.00;52.40
32139;DHT22;18644;48.700;9.210;2023-06-26T06:40:22;24.40;52.00
32139;DHT22;18644;48.700;9.210;2023-06-26T06:58:24;25.70;50.30
32139;DHT22;18644;48.700;9.210;2023-06-26T07:03:22;26.20;49.50
32139;DHT22;18644;48.700;9.210;2023-06-26T07:05:49;26.40;49.20
32139;DHT22;18644;48.700;9.210;2023-06-26T07:08:18;26.60;49.30
32139;DHT22;18644;48.700;9.210;2023-06-26T07:10:44;26.80;48.90
32139;DHT22;18644;48.700;9.210;2023-06-26T07:13:11;27.00;48.80
32139;DHT22;18644;48.700;9.210;2023-06-26T07:15:38;27.10;48.40
32139;DHT22;18644;48.700;9.210;2023-06-26T07:18:05;27.30;48.10
32139;DHT22;18644;48.700;9.210;2023-06-26T07:20:32;27.50;47.90
32139;DHT22;18644;48.700;9.210;2023-06-26T07:22:59;27.70;47.40
32139;DHT22;18644;48.700;9.210;2023-06-26T07:25:28;28.00;46.90
32139;DHT22;18644;48.700;9.210;2023-06-26T07:27:54;28.20;46.20
32139;DHT22;18644;48.700;9.210;2023-06-26T07:30:21;28.30;45.90
32139;DHT22;18644;48.700;9.210;2023-06-26T07:32:49;28.50;45.90
32139;DHT22;18644;48.700;9.210;2023-06-26T07:35:17;28.70;45.50
32139;DHT22;18644;48.700;9.210;2023-06-26T07:37:44;28.90;44.90
32139;DHT22;18644;48.700;9.210;2023-06-26T07:40:11;29.00;44.50
32139;DHT22;18644;48.700;9.210;2023-06-26T07:42:39;29.20;44.40
32139;DHT22;18644;48.700;9.210;2023-06-26T07:45:07;29.40;44.10
32139;DHT22;18644;48.700;9.210;2023-06-26T07:47:36;29.50;43.70
32139;DHT22;18644;48.700;9.210;2023-06-26T07:50:04;29.70;43.30
32139;DHT22;18644;48.700;9.210;2023-06-26T07:52:31;29.90;42.80
32139;DHT22;18644;48.700;9.210;2023-06-26T07:54:59;30.00;42.60
32139;DHT22;18644;48.700;9.210;2023-06-26T07:57:25;30.20;42.90
32139;DHT22;18644;48.700;9.210;2023-06-26T07:59:54;30.30;41.90
32139;DHT22;18644;48.700;9.210;2023-06-26T08:02:22;30.50;41.90
32139;DHT22;18644;48.700;9.210;2023-06-26T08:04:48;30.70;41.80
32139;DHT22;18644;48.700;9.210;2023-06-26T08:07:16;30.80;40.90
32139;DHT22;18644;48.700;9.210;2023-06-26T08:09:44;30.90;40.60
32139;DHT22;18644;48.700;9.210;2023-06-26T08:12:11;31.10;40.20
32139;DHT22;18644;48.700;9.210;2023-06-26T08:14:40;31.20;39.80
32139;DHT22;18644;48.700;9.210;2023-06-26T08:17:08;31.30;39.80
32139;DHT22;18644;48.700;9.210;2023-06-26T08:19:35;31.40;39.60
32139;DHT22;18644;48.700;9.210;2023-06-26T08:22:02;31.50;39.30
32139;DHT22;18644;48.700;9.210;2023-06-26T08:24:29;31.70;39.00
32139;DHT22;18644;48.700;9.210;2023-06-26T08:26:56;31.80;39.00
32139;DHT22;18644;48.700;9.210;2023-06-26T08:29:24;31.90;38.60
32139;DHT22;18644;48.700;9.210;2023-06-26T08:31:51;32.00;37.80
32139;DHT22;18644;48.700;9.210;2023-06-26T08:34:19;32.10;37.40
32139;DHT22;18644;48.700;9.210;2023-06-26T08:36:46;32.20;37.50
32139;DHT22;18644;48.700;9.210;2023-06-26T08:39:13;32.40;37.20
32139;DHT22;18644;48.700;9.210;2023-06-26T08:41:40;32.40;36.70
32139;DHT22;18644;48.700;9.210;2023-06-26T08:44:07;32.60;36.80
32139;DHT22;18644;48.700;9.210;2023-06-26T08:46:35;32.60;37.30
32139;DHT22;18644;48.700;9.210;2023-06-26T08:49:14;32.80;36.70
32139;DHT22;18644;48.700;9.210;2023-06-26T08:51:51;32.80;36.20
32139;DHT22;18644;48.700;9.210;2023-06-26T08:54:25;32.90;35.80
32139;DHT22;18644;48.700;9.210;2023-06-26T08:56:56;32.90;35.60
32139;DHT22;18644;48.700;9.210;2023-06-26T08:59:24;33.00;35.40
32139;DHT22;18644;48.700;9.210;2023-06-26T09:01:51;33.00;35.30
32139;DHT22;18644;48.700;9.210;2023-06-26T09:04:20;33.00;35.10
32139;DHT22;18644;48.700;9.210;2023-06-26T09:06:47;33.00;34.50
32139;DHT22;18644;48.700;9.210;2023-06-26T09:09:14;33.00;34.50
32139;DHT22;18644;48.700;9.210;2023-06-26T09:11:41;33.10;34.70
32139;DHT22;18644;48.700;9.210;2023-06-26T09:14:08;33.20;34.80
32139;DHT22;18644;48.700;9.210;2023-06-26T09:16:40;33.30;34.80
32139;DHT22;18644;48.700;9.210;2023-06-26T09:19:10;33.30;34.10
32139;DHT22;18644;48.700;9.210;2023-06-26T09:21:40;33.50;34.10
32139;DHT22;18644;48.700;9.210;2023-06-26T09:24:08;33.60;33.90
32139;DHT22;18644;48.700;9.210;2023-06-26T09:26:36;33.60;33.90
32139;DHT22;18644;48.700;9.210;2023-06-26T09:29:04;33.70;33.80
32139;DHT22;18644;48.700;9.210;2023-06-26T09:31:32;33.80;33.30
32139;DHT22;18644;48.700;9.210;2023-06-26T09:34:01;33.90;33.10
32139;DHT22;18644;48.700;9.210;2023-06-26T09:36:29;33.90;33.00
32139;DHT22;18644;48.700;9.210;2023-06-26T09:39:00;34.00;32.50
32139;DHT22;18644;48.700;9.210;2023-06-26T09:41:27;34.10;32.50
32139;DHT22;18644;48.700;9.210;2023-06-26T09:44:00;34.20;32.70
32139;DHT22;18644;48.700;9.210;2023-06-26T09:46:30;34.20;32.50
32139;DHT22;18644;48.700;9.210;2023-06-26T09:48:59;34.30;32.20
32139;DHT22;18644;48.700;9.210;2023-06-26T09:51:30;34.40;31.80
32139;DHT22;18644;48.700;9.210;2023-06-26T09:53:59;34.40;31.70
32139;DHT22;18644;48.700;9.210;2023-06-26T09:56:29;34.50;31.80
32139;DHT22;18644;48.700;9.210;2023-06-26T09:58:57;34.60;31.70
32139;DHT22;18644;48.700;9.210;2023-06-26T10:01:25;34.70;31.20
32139;DHT22;18644;48.700;9.210;2023-06-26T10:03:54;34.70;30.80
32139;DHT22;18644;48.700;9.210;2023-06-26T10:06:24;34.70;30.40
32139;DHT22;18644;48.700;9.210;2023-06-26T10:08:55;34.80;30.60
32139;DHT22;18644;48.700;9.210;2023-06-26T10:11:25;34.80;30.90
32139;DHT22;18644;48.700;9.210;2023-06-26T10:13:59;34.80;29.80
32139;DHT22;18644;48.700;9.210;2023-06-26T10:16:28;34.80;30.00
32139;DHT22;18644;48.700;9.210;2023-06-26T10:19:02;34.80;30.00
32139;DHT22;18644;48.700;9.210;2023-06-26T10:21:37;34.70;29.80
32139;DHT22;18644;48.700;9.210;2023-06-26T10:24:17;34.80;30.00
32139;DHT22;18644;48.700;9.210;2023-06-26T10:26:49;34.80;30.00
32139;DHT22;18644;48.700;9.210;2023-06-26T10:29:20;34.80;30.50
32139;DHT22;18644;48.700;9.210;2023-06-26T10:31:51;34.80;31.00
32139;DHT22;18644;48.700;9.210;2023-06-26T10:34:20;34.90;30.30
32139;DHT22;18644;48.700;9.210;2023-06-26T10:36:47;34.90;30.00
32139;DHT22;18644;48.700;9.210;2023-06-26T10:39:17;35.00;29.90
32139;DHT22;18644;48.700;9.210;2023-06-26T10:41:45;35.00;29.60
32139;DHT22;18644;48.700;9.210;2023-06-26T10:44:16;34.90;29.30
32139;DHT22;18644;48.700;9.210;2023-06-26T10:46:50;34.90;29.20
32139;DHT22;18644;48.700;9.210;2023-06-26T10:49:18;34.70;29.10
32139;DHT22;18644;48.700;9.210;2023-06-26T10:51:49;34.60;29.30
32139;DHT22;18644;48.700;9.210;2023-06-26T10:54:18;34.40;29.30
32139;DHT22;18644;48.700;9.210;2023-06-26T10:56:48;34.30;29.50
32139;DHT22;18644;48.700;9.210;2023-06-26T10:59:18;34.10;29.60
32139;DHT22;18644;48.700;9.210;2023-06-26T11:01:46;33.90;30.00
32139;DHT22;18644;48.700;9.210;2023-06-26T11:04:37;33.80;30.40
32139;DHT22;18644;48.700;9.210;2023-06-26T11:07:18;33.80;31.70
32139;DHT22;18644;48.700;9.210;2023-06-26T11:09:58;33.80;31.70
32139;DHT22;18644;48.700;9.210;2023-06-26T11:12:38;33.80;31.30
32139;DHT22;18644;48.700;9.210;2023-06-26T11:15:08;33.80;31.40
32139;DHT22;18644;48.700;9.210;2023-06-26T11:17:36;33.90;31.70
32139;DHT22;18644;48.700;9.210;2023-06-26T11:20:06;33.90;31.60
32139;DHT22;18644;48.700;9.210;2023-06-26T11:22:37;34.00;31.80
32139;DHT22;18644;48.700;9.210;2023-06-26T11:25:07;34.00;31.90
32139;DHT22;18644;48.700;9.210;2023-06-26T11:27:39;34.10;31.60
32139;DHT22;18644;48.700;9.210;2023-06-26T11:30:09;34.20;31.50
32139;DHT22;18644;48.700;9.210;2023-06-26T11:32:41;34.30;31.50
32139;DHT22;18644;48.700;9.210;2023-06-26T11:35:08;34.40;31.40
32139;DHT22;18644;48.700;9.210;2023-06-26T11:37:36;34.50;31.40
32139;DHT22;18644;48.700;9.210;2023-06-26T11:40:16;34.50;30.90
32139;DHT22;18644;48.700;9.210;2023-06-26T11:42:45;34.60;31.10
32139;DHT22;18644;48.700;9.210;2023-06-26T11:45:15;34.70;31.00
32139;DHT22;18644;48.700;9.210;2023-06-26T11:47:43;34.70;30.70
32139;DHT22;18644;48.700;9.210;2023-06-26T11:50:15;34.70;30.70
32139;DHT22;18644;48.700;9.210;2023-06-26T11:52:42;34.80;30.80
32139;DHT22;18644;48.700;9.210;2023-06-26T11:55:10;34.80;31.00
32139;DHT22;18644;48.700;9.210;2023-06-26T11:57:37;34.90;30.80
32139;DHT22;18644;48.700;9.210;2023-06-26T12:00:12;35.00;30.90
32139;DHT22;18644;48.700;9.210;2023-06-26T12:02:40;35.10;30.40
32139;DHT22;18644;48.700;9.210;2023-06-26T12:05:08;35.20;30.40
32139;DHT22;18644;48.700;9.210;2023-06-26T12:07:35;35.30;30.60
32139;DHT22;18644;48.700;9.210;2023-06-26T12:10:03;35.30;30.70
32139;DHT22;18644;48.700;9.210;2023-06-26T12:12:33;35.40;30.80
32139;DHT22;18644;48.700;9.210;2023-06-26T12:15:00;35.50;30.40
32139;DHT22;18644;48.700;9.210;2023-06-26T12:17:29;35.40;30.00
32139;DHT22;18644;48.700;9.210;2023-06-26T12:19:56;35.50;29.80
32139;DHT22;18644;48.700;9.210;2023-06-26T12:22:23;35.30;30.00
32139;DHT22;18644;48.700;9.210;2023-06-26T12:24:50;35.30;30.20
32139;DHT22;18644;48.700;9.210;2023-06-26T12:27:18;35.30;30.20
32139;DHT22;18644;48.700;9.210;2023-06-26T12:29:50;35.30;30.40
32139;DHT22;18644;48.700;9.210;2023-06-26T12:32:19;35.20;30.40
32139;DHT22;18644;48.700;9.210;2023-06-26T12:34:49;35.20;30.50
32139;DHT22;18644;48.700;9.210;2023-06-26T12:37:17;35.20;30.50
32139;DHT22;18644;48.700;9.210;2023-06-26T12:39:48;35.10;30.70
32139;DHT22;18644;48.700;9.210;2023-06-26T12:42:17;35.10;30.80
32139;DHT22;18644;48.700;9.210;2023-06-26T12:44:45;35.00;31.00
32139;DHT22;18644;48.700;9.210;2023-06-26T12:47:14;35.00;31.40
32139;DHT22;18644;48.700;9.210;2023-06-26T12:49:43;35.00;31.70
32139;DHT22;18644;48.700;9.210;2023-06-26T12:52:14;35.10;31.40
32139;DHT22;18644;48.700;9.210;2023-06-26T12:54:42;35.00;31.10
32139;DHT22;18644;48.700;9.210;2023-06-26T12:57:10;35.00;31.70
32139;DHT22;18644;48.700;9.210;2023-06-26T12:59:40;35.00;32.30
32139;DHT22;18644;48.700;9.210;2023-06-26T13:02:07;35.00;32.40
32139;DHT22;18644;48.700;9.210;2023-06-26T13:04:36;35.10;32.30
32139;DHT22;18644;48.700;9.210;2023-06-26T13:07:05;35.10;32.00
32139;DHT22;18644;48.700;9.210;2023-06-26T13:09:34;35.20;32.60
32139;DHT22;18644;48.700;9.210;2023-06-26T13:12:02;35.20;31.80
32139;DHT22;18644;48.700;9.210;2023-06-26T13:14:30;35.30;32.20
32139;DHT22;18644;48.700;9.210;2023-06-26T13:16:57;35.40;32.00
32139;DHT22;18644;48.700;9.210;2023-06-26T13:19:24;35.40;32.10
32139;DHT22;18644;48.700;9.210;2023-06-26T13:21:51;35.40;31.70
32139;DHT22;18644;48.700;9.210;2023-06-26T13:24:18;35.40;31.30
32139;DHT22;18644;48.700;9.210;2023-06-26T13:26:46;35.30;31.10
32139;DHT22;18644;48.700;9.210;2023-06-26T13:29:13;35.20;31.60
32139;DHT22;18644;48.700;9.210;2023-06-26T13:31:41;35.20;31.70
32139;DHT22;18644;48.700;9.210;2023-06-26T13:34:08;35.20;31.80
32139;DHT22;18644;48.700;9.210;2023-06-26T13:36:35;35.20;31.40
32139;DHT22;18644;48.700;9.210;2023-06-26T13:39:03;35.20;31.40
32139;DHT22;18644;48.700;9.210;2023-06-26T13:41:30;35.10;31.50
32139;DHT22;18644;48.700;9.210;2023-06-26T13:43:58;35.10;31.40
32139;DHT22;18644;48.700;9.210;2023-06-26T13:46:25;35.10;31.30
32139;DHT22;18644;48.700;9.210;2023-06-26T13:48:53;35.10;31.20
32139;DHT22;18644;48.700;9.210;2023-06-26T13:51:20;35.20;31.50
32139;DHT22;18644;48.700;9.210;2023-06-26T13:53:47;35.20;31.30
32139;DHT22;18644;48.700;9.210;2023-06-26T13:56:13;35.20;31.20
32139;DHT22;18644;48.700;9.210;2023-06-26T13:58:41;35.20;31.20
32139;DHT22;18644;48.700;9.210;2023-06-26T14:01:10;35.20;31.10
32139;DHT22;18644;48.700;9.210;2023-06-26T14:03:38;35.20;31.60
32139;DHT22;18644;48.700;9.210;2023-06-26T14:06:05;35.20;31.00
32139;DHT22;18644;48.700;9.210;2023-06-26T14:08:32;35.20;30.60
32139;DHT22;18644;48.700;9.210;2023-06-26T14:10:59;35.20;30.40
32139;DHT22;18644;48.700;9.210;2023-06-26T14:13:26;35.10;30.30
32139;DHT22;18644;48.700;9.210;2023-06-26T14:15:53;35.10;30.10
32139;DHT22;18644;48.700;9.210;2023-06-26T14:18:25;35.10;30.10
32139;DHT22;18644;48.700;9.210;2023-06-26T14:20:53;35.10;30.20
32139;DHT22;18644;48.700;9.210;2023-06-26T14:23:20;35.10;30.00
32139;DHT22;18644;48.700;9.210;2023-06-26T14:25:47;35.10;30.10
32139;DHT22;18644;48.700;9.210;2023-06-26T14:28:14;35.20;30.10
32139;DHT22;18644;48.700;9.210;2023-06-26T14:30:41;35.20;30.10
32139;DHT22;18644;48.700;9.210;2023-06-26T14:33:08;35.20;30.00
32139;DHT22;18644;48.700;9.210;2023-06-26T14:35:36;35.20;29.90
32139;DHT22;18644;48.700;9.210;2023-06-26T14:38:03;35.20;29.30
32139;DHT22;18644;48.700;9.210;2023-06-26T14:40:30;35.10;29.00
32139;DHT22;18644;48.700;9.210;2023-06-26T14:42:58;35.10;28.90
32139;DHT22;18644;48.700;9.210;2023-06-26T14:45:25;35.00;29.00
32139;DHT22;18644;48.700;9.210;2023-06-26T14:47:52;34.90;29.20
32139;DHT22;18644;48.700;9.210;2023-06-26T14:50:19;34.90;29.40
32139;DHT22;18644;48.700;9.210;2023-06-26T14:52:47;34.90;29.40
32139;DHT22;18644;48.700;9.210;2023-06-26T14:55:15;34.90;29.10
32139;DHT22;18644;48.700;9.210;2023-06-26T14:57:42;34.90;29.10
32139;DHT22;18644;48.700;9.210;2023-06-26T15:00:11;34.90;29.30
32139;DHT22;18644;48.700;9.210;2023-06-26T15:02:38;34.90;29.20
32139;DHT22;18644;48.700;9.210;2023-06-26T15:05:06;34.90;29.00
32139;DHT22;18644;48.700;9.210;2023-06-26T15:07:33;34.90;29.10
32139;DHT22;18644;48.700;9.210;2023-06-26T15:10:01;34.80;29.00
32139;DHT22;18644;48.700;9.210;2023-06-26T15:12:28;34.80;28.70
32139;DHT22;18644;48.700;9.210;2023-06-26T15:14:55;34.80;28.80
32139;DHT22;18644;48.700;9.210;2023-06-26T15:17:22;34.70;28.70
32139;DHT22;18644;48.700;9.210;2023-06-26T15:19:49;34.60;28.90
32139;DHT22;18644;48.700;9.210;2023-06-26T15:22:17;34.60;29.00
32139;DHT22;18644;48.700;9.210;2023-06-26T15:24:45;34.60;29.30
32139;DHT22;18644;48.700;9.210;2023-06-26T15:27:14;34.50;29.40
32139;DHT22;18644;48.700;9.210;2023-06-26T15:29:41;34.60;29.10
32139;DHT22;18644;48.700;9.210;2023-06-26T15:32:08;34.50;29.10
32139;DHT22;18644;48.700;9.210;2023-06-26T15:34:36;34.50;29.00
32139;DHT22;18644;48.700;9.210;2023-06-26T15:37:04;34.40;29.20
32139;DHT22;18644;48.700;9.210;2023-06-26T15:39:31;34.30;29.00
32139;DHT22;18644;48.700;9.210;2023-06-26T15:41:58;34.30;29.10
32139;DHT22;18644;48.700;9.210;2023-06-26T15:44:26;34.20;29.20
32139;DHT22;18644;48.700;9.210;2023-06-26T15:46:55;34.10;28.90
32139;DHT22;18644;48.700;9.210;2023-06-26T15:49:22;34.00;28.80
32139;DHT22;18644;48.700;9.210;2023-06-26T15:51:49;34.00;29.00
32139;DHT22;18644;48.700;9.210;2023-06-26T15:54:17;33.90;29.10
32139;DHT22;18644;48.700;9.210;2023-06-26T15:56:44;33.80;29.00